sensor_id;sensor_type;location;lat;lon;timestamp;P1;durP1;ratioP1;P2;durP2;ratioP2
25758;SDS011;13604;52.496;13.456;2023-12-29T00:00:40;6.57;;;2.50;;
25758;SDS011;13604;52.496;13.456;2023-12-29T00:03:05;4.03;;;2.00;;
25758;SDS011;13604;52.496;13.456;2023-12-29T00:05:30;3.97;;;2.05;;
25758;SDS011;13604;52.496;13.456;2023-12-29T00:07:56;5.95;;;2.30;;
25758;SDS011;13604;52.496;13.456;2023-12-29T00:10:21;5.40;;;2.20;;
25758;SDS011;13604;52.496;13.456;2023-12-29T00:12:46;5.45;;;2.08;;
25758;SDS011;13604;52.496;13.456;2023-12-29T00:15:12;4.55;;;2.00;;
25758;SDS011;13604;52.496;13.456;2023-12-29T00:17:37;5.72;;;2.13;;
25758;SDS011;13604;52.496;13.456;2023-12-29T00:20:04;3.92;;;2.17;;
25758;SDS011;13604;52.496;13.456;2023-12-29T00:22:30;3.45;;;2.33;;
25758;SDS011;13604;52.496;13.456;2023-12-29T00:24:56;6.03;;;2.10;;
25758;SDS011;13604;52.496;13.456;2023-12-29T00:27:22;6.00;;;2.42;;
25758;SDS011;13604;52.496;13.456;2023-12-29T00:29:47;2.80;;;1.90;;
25758;SDS011;13604;52.496;13.456;2023-12-29T00:32:12;2.08;;;1.85;;
25758;SDS011;13604;52.496;13.456;2023-12-29T00:34:38;3.20;;;1.80;;
25758;SDS011;13604;52.496;13.456;2023-12-29T00:37:03;3.55;;;2.13;;
25758;SDS011;13604;52.496;13.456;2023-12-29T00:39:28;5.68;;;2.05;;
25758;SDS011;13604;52.496;13.456;2023-12-29T00:41:55;5.28;;;2.00;;
25758;SDS011;13604;52.496;13.456;2023-12-29T00:44:22;5.38;;;2.00;;
25758;SDS011;13604;52.496;13.456;2023-12-29T00:46:48;4.80;;;2.13;;
25758;SDS011;13604;52.496;13.456;2023-12-29T00:49:13;5.40;;;1.83;;
25758;SDS011;13604;52.496;13.456;2023-12-29T00:51:39;3.05;;;1.80;;
25758;SDS011;13604;52.496;13.456;2023-12-29T00:54:06;2.78;;;1.70;;
25758;SDS011;13604;52.496;13.456;2023-12-29T00:56:31;4.18;;;1.98;;
25758;SDS011;13604;52.496;13.456;2023-12-29T00:58:56;3.92;;;2.13;;
25758;SDS011;13604;52.496;13.456;2023-12-29T01:01:22;4.65;;;2.15;;
25758;SDS011;13604;52.496;13.456;2023-12-29T01:03:47;4.65;;;2.08;;
25758;SDS011;13604;52.496;13.456;2023-12-29T01:06:12;4.20;;;1.92;;
25758;SDS011;13604;52.496;13.456;2023-12-29T01:08:38;4.70;;;2.05;;
25758;SDS011;13604;52.496;13.456;2023-12-29T01:11:03;4.20;;;1.98;;
25758;SDS011;13604;52.496;13.456;2023-12-29T01:13:28;4.55;;;2.03;;
25758;SDS011;13604;52.496;13.456;2023-12-29T01:15:54;4.72;;;2.17;;
25758;SDS011;13604;52.496;13.456;2023-12-29T01:18:19;7.65;;;2.53;;
25758;SDS011;13604;52.496;13.456;2023-12-29T01:20:44;4.55;;;2.00;;
25758;SDS011;13604;52.496;13.456;2023-12-29T01:23:09;4.10;;;1.55;;
25758;SDS011;13604;52.496;13.456;2023-12-29T01:25:35;3.90;;;1.75;;
25758;SDS011;13604;52.496;13.456;2023-12-29T01:28:00;4.45;;;1.63;;
25758;SDS011;13604;52.496;13.456;2023-12-29T01:30:25;4.25;;;1.98;;
25758;SDS011;13604;52.496;13.456;2023-12-29T01:32:51;8.57;;;1.98;;
25758;SDS011;13604;52.496;13.456;2023-12-29T01:35:16;4.80;;;2.45;;
25758;SDS011;13604;52.496;13.456;2023-12-29T01:37:42;4.35;;;1.80;;
25758;SDS011;13604;52.496;13.456;2023-12-29T01:40:07;3.45;;;2.22;;
25758;SDS011;13604;52.496;13.456;2023-12-29T01:42:33;3.75;;;2.15;;
25758;SDS011;13604;52.496;13.456;2023-12-29T01:44:58;3.60;;;2.00;;
25758;SDS011;13604;52.496;13.456;2023-12-29T01:47:24;4.93;;;1.80;;
25758;SDS011;13604;52.496;13.456;2023-12-29T01:49:49;3.83;;;1.98;;
25758;SDS011;13604;52.496;13.456;2023-12-29T01:52:16;4.57;;;2.50;;
25758;SDS011;13604;52.496;13.456;2023-12-29T01:54:42;5.57;;;2.13;;
25758;SDS011;13604;52.496;13.456;2023-12-29T01:57:09;6.38;;;2.35;;
25758;SDS011;13604;52.496;13.456;2023-12-29T01:59:34;2.80;;;1.83;;
25758;SDS011;13604;52.496;13.456;2023-12-29T02:02:01;5.80;;;1.95;;
25758;SDS011;13604;52.496;13.456;2023-12-29T02:04:28;3.25;;;1.85;;
25758;SDS011;13604;52.496;13.456;2023-12-29T02:06:55;6.07;;;2.20;;
25758;SDS011;13604;52.496;13.456;2023-12-29T02:09:20;6.22;;;2.25;;
25758;SDS011;13604;52.496;13.456;2023-12-29T02:11:46;6.60;;;2.08;;
25758;SDS011;13604;52.496;13.456;2023-12-29T02:14:12;5.15;;;1.80;;
25758;SDS011;13604;52.496;13.456;2023-12-29T02:16:46;3.33;;;1.80;;
25758;SDS011;13604;52.496;13.456;2023-12-29T02:22:06;6.95;;;1.65;;
25758;SDS011;13604;52.496;13.456;2023-12-29T02:24:36;6.07;;;2.05;;
25758;SDS011;13604;52.496;13.456;2023-12-29T02:27:04;8.65;;;2.10;;
25758;SDS011;13604;52.496;13.456;2023-12-29T02:29:38;2.95;;;1.88;;
25758;SDS011;13604;52.496;13.456;2023-12-29T02:32:07;2.88;;;2.00;;
25758;SDS011;13604;52.496;13.456;2023-12-29T02:34:38;3.75;;;1.92;;
25758;SDS011;13604;52.496;13.456;2023-12-29T02:37:06;5.30;;;2.03;;
25758;SDS011;13604;52.496;13.456;2023-12-29T02:39:33;6.85;;;2.35;;
25758;SDS011;13604;52.496;13.456;2023-12-29T02:41:58;5.07;;;1.98;;
25758;SDS011;13604;52.496;13.456;2023-12-29T02:44:23;3.70;;;2.03;;
25758;SDS011;13604;52.496;13.456;2023-12-29T02:46:49;4.53;;;2.13;;
25758;SDS011;13604;52.496;13.456;2023-12-29T02:49:14;4.95;;;2.10;;
25758;SDS011;13604;52.496;13.456;2023-12-29T02:51:39;6.82;;;2.08;;
25758;SDS011;13604;52.496;13.456;2023-12-29T02:54:05;4.35;;;2.10;;
25758;SDS011;13604;52.496;13.456;2023-12-29T02:56:31;16.52;;;2.38;;
25758;SDS011;13604;52.496;13.456;2023-12-29T02:58:56;5.07;;;2.08;;
25758;SDS011;13604;52.496;13.456;2023-12-29T03:01:21;4.00;;;1.90;;
25758;SDS011;13604;52.496;13.456;2023-12-29T03:03:47;6.70;;;2.08;;
25758;SDS011;13604;52.496;13.456;2023-12-29T03:06:12;6.22;;;2.10;;
25758;SDS011;13604;52.496;13.456;2023-12-29T03:08:37;4.22;;;1.80;;
25758;SDS011;13604;52.496;13.456;2023-12-29T03:11:03;5.90;;;1.80;;
25758;SDS011;13604;52.496;13.456;2023-12-29T03:13:28;5.25;;;1.73;;
25758;SDS011;13604;52.496;13.456;2023-12-29T03:15:53;4.70;;;1.92;;
25758;SDS011;13604;52.496;13.456;2023-12-29T03:18:18;5.57;;;1.95;;
25758;SDS011;13604;52.496;13.456;2023-12-29T03:20:44;4.25;;;2.03;;
25758;SDS011;13604;52.496;13.456;2023-12-29T03:23:09;3.40;;;2.08;;
25758;SDS011;13604;52.496;13.456;2023-12-29T03:25:34;5.78;;;1.90;;
25758;SDS011;13604;52.496;13.456;2023-12-29T03:28:00;3.75;;;1.58;;
25758;SDS011;13604;52.496;13.456;2023-12-29T03:30:25;1.98;;;1.65;;
25758;SDS011;13604;52.496;13.456;2023-12-29T03:32:50;1.50;;;1.40;;
25758;SDS011;13604;52.496;13.456;2023-12-29T03:35:16;3.95;;;1.80;;
25758;SDS011;13604;52.496;13.456;2023-12-29T03:37:41;2.40;;;1.50;;
25758;SDS011;13604;52.496;13.456;2023-12-29T03:40:07;1.85;;;1.50;;
25758;SDS011;13604;52.496;13.456;2023-12-29T03:42:33;5.18;;;1.88;;
25758;SDS011;13604;52.496;13.456;2023-12-29T03:44:58;1.80;;;1.33;;
25758;SDS011;13604;52.496;13.456;2023-12-29T03:47:23;3.95;;;1.55;;
25758;SDS011;13604;52.496;13.456;2023-12-29T03:49:49;6.43;;;1.77;;
25758;SDS011;13604;52.496;13.456;2023-12-29T03:52:14;2.97;;;1.55;;
25758;SDS011;13604;52.496;13.456;2023-12-29T03:54:39;4.03;;;1.73;;
25758;SDS011;13604;52.496;13.456;2023-12-29T03:57:05;1.58;;;1.48;;
25758;SDS011;13604;52.496;13.456;2023-12-29T03:59:30;3.47;;;1.50;;
25758;SDS011;13604;52.496;13.456;2023-12-29T04:01:55;1.50;;;1.20;;
25758;SDS011;13604;52.496;13.456;2023-12-29T04:04:21;2.03;;;1.55;;
25758;SDS011;13604;52.496;13.456;2023-12-29T04:06:46;2.60;;;1.40;;
25758;SDS011;13604;52.496;13.456;2023-12-29T04:09:11;2.50;;;1.63;;
25758;SDS011;13604;52.496;13.456;2023-12-29T04:11:36;2.90;;;1.35;;
25758;SDS011;13604;52.496;13.456;2023-12-29T04:14:02;5.18;;;1.73;;
25758;SDS011;13604;52.496;13.456;2023-12-29T04:16:27;1.30;;;1.20;;
25758;SDS011;13604;52.496;13.456;2023-12-29T04:18:52;2.45;;;1.33;;
25758;SDS011;13604;52.496;13.456;2023-12-29T04:21:18;2.28;;;1.15;;
25758;SDS011;13604;52.496;13.456;2023-12-29T04:23:43;2.58;;;1.08;;
25758;SDS011;13604;52.496;13.456;2023-12-29T04:26:08;3.85;;;1.42;;
25758;SDS011;13604;52.496;13.456;2023-12-29T04:28:33;1.63;;;1.33;;
25758;SDS011;13604;52.496;13.456;2023-12-29T04:30:59;3.05;;;0.95;;
25758;SDS011;13604;52.496;13.456;2023-12-29T04:33:24;1.67;;;1.20;;
25758;SDS011;13604;52.496;13.456;2023-12-29T04:35:49;1.55;;;1.25;;
25758;SDS011;13604;52.496;13.456;2023-12-29T04:38:15;3.08;;;1.70;;
25758;SDS011;13604;52.496;13.456;2023-12-29T04:40:42;2.75;;;0.98;;
25758;SDS011;13604;52.496;13.456;2023-12-29T04:43:07;2.40;;;1.40;;
25758;SDS011;13604;52.496;13.456;2023-12-29T04:45:33;2.35;;;1.23;;
25758;SDS011;13604;52.496;13.456;2023-12-29T04:47:58;6.22;;;1.45;;
25758;SDS011;13604;52.496;13.456;2023-12-29T04:50:23;2.22;;;1.20;;
25758;SDS011;13604;52.496;13.456;2023-12-29T04:52:49;1.52;;;1.20;;
25758;SDS011;13604;52.496;13.456;2023-12-29T04:55:14;1.30;;;1.08;;
25758;SDS011;13604;52.496;13.456;2023-12-29T04:57:39;2.90;;;1.25;;
25758;SDS011;13604;52.496;13.456;2023-12-29T05:00:05;3.50;;;1.05;;
25758;SDS011;13604;52.496;13.456;2023-12-29T05:02:30;2.05;;;1.10;;
25758;SDS011;13604;52.496;13.456;2023-12-29T05:04:56;4.22;;;1.00;;
25758;SDS011;13604;52.496;13.456;2023-12-29T05:07:21;3.67;;;1.48;;
25758;SDS011;13604;52.496;13.456;2023-12-29T05:09:48;1.27;;;0.90;;
25758;SDS011;13604;52.496;13.456;2023-12-29T05:12:14;2.15;;;1.20;;
25758;SDS011;13604;52.496;13.456;2023-12-29T05:14:39;7.22;;;1.20;;
25758;SDS011;13604;52.496;13.456;2023-12-29T05:17:05;1.88;;;1.00;;
25758;SDS011;13604;52.496;13.456;2023-12-29T05:19:30;1.70;;;1.10;;
25758;SDS011;13604;52.496;13.456;2023-12-29T05:21:55;1.90;;;1.27;;
25758;SDS011;13604;52.496;13.456;2023-12-29T05:24:21;1.45;;;1.08;;
25758;SDS011;13604;52.496;13.456;2023-12-29T05:26:46;4.70;;;1.25;;
25758;SDS011;13604;52.496;13.456;2023-12-29T05:29:11;2.28;;;0.98;;
25758;SDS011;13604;52.496;13.456;2023-12-29T05:31:37;2.72;;;0.95;;
25758;SDS011;13604;52.496;13.456;2023-12-29T05:34:02;2.10;;;0.80;;
25758;SDS011;13604;52.496;13.456;2023-12-29T05:36:27;1.23;;;0.98;;
25758;SDS011;13604;52.496;13.456;2023-12-29T05:38:52;3.20;;;0.98;;
25758;SDS011;13604;52.496;13.456;2023-12-29T05:41:18;1.67;;;0.98;;
25758;SDS011;13604;52.496;13.456;2023-12-29T05:43:44;1.05;;;0.70;;
25758;SDS011;13604;52.496;13.456;2023-12-29T05:46:09;3.25;;;1.20;;
25758;SDS011;13604;52.496;13.456;2023-12-29T05:48:38;12.50;;;1.17;;
25758;SDS011;13604;52.496;13.456;2023-12-29T05:51:08;2.15;;;1.02;;
25758;SDS011;13604;52.496;13.456;2023-12-29T05:53:34;2.80;;;0.88;;
25758;SDS011;13604;52.496;13.456;2023-12-29T05:56:00;3.67;;;0.85;;
25758;SDS011;13604;52.496;13.456;2023-12-29T05:58:25;2.85;;;1.08;;
25758;SDS011;13604;52.496;13.456;2023-12-29T06:00:51;1.58;;;1.05;;
25758;SDS011;13604;52.496;13.456;2023-12-29T06:03:16;5.50;;;1.10;;
25758;SDS011;13604;52.496;13.456;2023-12-29T06:05:41;3.45;;;1.00;;
25758;SDS011;13604;52.496;13.456;2023-12-29T06:08:07;2.72;;;1.10;;
25758;SDS011;13604;52.496;13.456;2023-12-29T06:10:32;1.35;;;1.00;;
25758;SDS011;13604;52.496;13.456;2023-12-29T06:12:58;4.85;;;1.08;;
25758;SDS011;13604;52.496;13.456;2023-12-29T06:15:23;2.40;;;1.05;;
25758;SDS011;13604;52.496;13.456;2023-12-29T06:17:48;3.17;;;1.05;;
25758;SDS011;13604;52.496;13.456;2023-12-29T06:20:14;4.47;;;1.10;;
25758;SDS011;13604;52.496;13.456;2023-12-29T06:22:39;1.40;;;0.93;;
25758;SDS011;13604;52.496;13.456;2023-12-29T06:25:08;1.15;;;1.05;;
25758;SDS011;13604;52.496;13.456;2023-12-29T06:27:35;1.55;;;1.00;;
25758;SDS011;13604;52.496;13.456;2023-12-29T06:30:02;3.42;;;1.10;;
25758;SDS011;13604;52.496;13.456;2023-12-29T06:32:29;2.17;;;1.10;;
25758;SDS011;13604;52.496;13.456;2023-12-29T06:34:55;1.58;;;1.10;;
25758;SDS011;13604;52.496;13.456;2023-12-29T06:37:21;1.88;;;1.33;;
25758;SDS011;13604;52.496;13.456;2023-12-29T06:39:46;1.23;;;1.10;;
25758;SDS011;13604;52.496;13.456;2023-12-29T06:42:11;2.67;;;1.10;;
25758;SDS011;13604;52.496;13.456;2023-12-29T06:44:36;3.00;;;1.00;;
25758;SDS011;13604;52.496;13.456;2023-12-29T06:47:02;3.53;;;1.35;;
25758;SDS011;13604;52.496;13.456;2023-12-29T06:49:29;5.88;;;1.30;;
25758;SDS011;13604;52.496;13.456;2023-12-29T06:51:55;1.77;;;1.20;;
25758;SDS011;13604;52.496;13.456;2023-12-29T06:54:20;1.30;;;0.98;;
25758;SDS011;13604;52.496;13.456;2023-12-29T06:56:45;3.63;;;1.48;;
25758;SDS011;13604;52.496;13.456;2023-12-29T06:59:11;4.15;;;1.58;;
25758;SDS011;13604;52.496;13.456;2023-12-29T07:01:38;3.70;;;1.20;;
25758;SDS011;13604;52.496;13.456;2023-12-29T07:04:04;2.80;;;1.02;;
25758;SDS011;13604;52.496;13.456;2023-12-29T07:06:30;3.28;;;1.45;;
25758;SDS011;13604;52.496;13.456;2023-12-29T07:08:55;2.45;;;1.42;;
25758;SDS011;13604;52.496;13.456;2023-12-29T07:11:21;2.13;;;1.10;;
25758;SDS011;13604;52.496;13.456;2023-12-29T07:13:46;2.10;;;1.50;;
25758;SDS011;13604;52.496;13.456;2023-12-29T07:16:11;3.88;;;1.50;;
25758;SDS011;13604;52.496;13.456;2023-12-29T07:18:37;3.92;;;1.45;;
25758;SDS011;13604;52.496;13.456;2023-12-29T07:21:02;3.38;;;1.10;;
25758;SDS011;13604;52.496;13.456;2023-12-29T07:23:27;2.08;;;1.50;;
25758;SDS011;13604;52.496;13.456;2023-12-29T07:25:53;3.83;;;1.70;;
25758;SDS011;13604;52.496;13.456;2023-12-29T07:28:18;3.70;;;1.88;;
25758;SDS011;13604;52.496;13.456;2023-12-29T07:30:43;2.42;;;1.55;;
25758;SDS011;13604;52.496;13.456;2023-12-29T07:33:09;5.63;;;1.40;;
25758;SDS011;13604;52.496;13.456;2023-12-29T07:35:34;3.45;;;1.45;;
25758;SDS011;13604;52.496;13.456;2023-12-29T07:37:59;2.33;;;1.20;;
25758;SDS011;13604;52.496;13.456;2023-12-29T07:40:25;2.78;;;1.73;;
25758;SDS011;13604;52.496;13.456;2023-12-29T07:42:51;1.42;;;1.25;;
25758;SDS011;13604;52.496;13.456;2023-12-29T07:45:17;2.83;;;1.40;;
25758;SDS011;13604;52.496;13.456;2023-12-29T07:47:42;2.70;;;1.40;;
25758;SDS011;13604;52.496;13.456;2023-12-29T07:50:08;5.70;;;1.23;;
25758;SDS011;13604;52.496;13.456;2023-12-29T07:52:33;2.35;;;1.23;;
25758;SDS011;13604;52.496;13.456;2023-12-29T07:54:59;3.92;;;1.70;;
25758;SDS011;13604;52.496;13.456;2023-12-29T07:57:24;2.95;;;1.50;;
25758;SDS011;13604;52.496;13.456;2023-12-29T07:59:50;2.92;;;1.42;;
25758;SDS011;13604;52.496;13.456;2023-12-29T08:02:15;3.45;;;1.38;;
25758;SDS011;13604;52.496;13.456;2023-12-29T08:04:41;2.92;;;1.52;;
25758;SDS011;13604;52.496;13.456;2023-12-29T08:07:06;4.80;;;1.35;;
25758;SDS011;13604;52.496;13.456;2023-12-29T08:09:32;4.53;;;1.50;;
25758;SDS011;13604;52.496;13.456;2023-12-29T08:11:57;4.38;;;1.95;;
25758;SDS011;13604;52.496;13.456;2023-12-29T08:14:22;1.88;;;1.33;;
25758;SDS011;13604;52.496;13.456;2023-12-29T08:16:48;3.25;;;1.48;;
25758;SDS011;13604;52.496;13.456;2023-12-29T08:19:13;6.47;;;1.75;;
25758;SDS011;13604;52.496;13.456;2023-12-29T08:21:40;4.28;;;1.65;;
25758;SDS011;13604;52.496;13.456;2023-12-29T08:24:05;5.68;;;1.63;;
25758;SDS011;13604;52.496;13.456;2023-12-29T08:26:31;2.38;;;1.30;;
25758;SDS011;13604;52.496;13.456;2023-12-29T08:28:56;3.50;;;1.45;;
25758;SDS011;13604;52.496;13.456;2023-12-29T08:31:21;2.90;;;1.33;;
25758;SDS011;13604;52.496;13.456;2023-12-29T08:33:48;4.70;;;1.42;;
25758;SDS011;13604;52.496;13.456;2023-12-29T08:36:13;3.08;;;1.63;;
25758;SDS011;13604;52.496;13.456;2023-12-29T08:38:38;5.10;;;1.50;;
25758;SDS011;13604;52.496;13.456;2023-12-29T08:41:04;3.00;;;1.38;;
25758;SDS011;13604;52.496;13.456;2023-12-29T08:43:30;5.28;;;1.20;;
25758;SDS011;13604;52.496;13.456;2023-12-29T08:45:56;2.92;;;1.55;;
25758;SDS011;13604;52.496;13.456;2023-12-29T08:48:21;3.75;;;1.50;;
25758;SDS011;13604;52.496;13.456;2023-12-29T08:50:47;3.30;;;1.20;;
25758;SDS011;13604;52.496;13.456;2023-12-29T08:53:13;4.13;;;1.55;;
25758;SDS011;13604;52.496;13.456;2023-12-29T08:55:38;2.78;;;1.70;;
25758;SDS011;13604;52.496;13.456;2023-12-29T08:58:03;4.22;;;1.50;;
25758;SDS011;13604;52.496;13.456;2023-12-29T09:00:29;4.25;;;1.58;;
25758;SDS011;13604;52.496;13.456;2023-12-29T09:02:55;6.70;;;2.08;;
25758;SDS011;13604;52.496;13.456;2023-12-29T09:05:21;2.83;;;1.60;;
25758;SDS011;13604;52.496;13.456;2023-12-29T09:07:46;3.83;;;1.52;;
25758;SDS011;13604;52.496;13.456;2023-12-29T09:10:12;4.05;;;1.10;;
25758;SDS011;13604;52.496;13.456;2023-12-29T09:12:37;2.35;;;1.30;;
25758;SDS011;13604;52.496;13.456;2023-12-29T09:15:04;3.38;;;1.30;;
25758;SDS011;13604;52.496;13.456;2023-12-29T09:17:30;4.15;;;1.60;;
25758;SDS011;13604;52.496;13.456;2023-12-29T09:19:55;2.75;;;1.50;;
25758;SDS011;13604;52.496;13.456;2023-12-29T09:22:20;3.97;;;1.20;;
25758;SDS011;13604;52.496;13.456;2023-12-29T09:24:46;6.50;;;1.50;;
25758;SDS011;13604;52.496;13.456;2023-12-29T09:27:11;5.38;;;1.60;;
25758;SDS011;13604;52.496;13.456;2023-12-29T09:29:36;5.22;;;1.38;;
25758;SDS011;13604;52.496;13.456;2023-12-29T09:32:02;2.90;;;1.55;;
25758;SDS011;13604;52.496;13.456;2023-12-29T09:34:28;4.65;;;1.65;;
25758;SDS011;13604;52.496;13.456;2023-12-29T09:36:53;3.78;;;1.60;;
25758;SDS011;13604;52.496;13.456;2023-12-29T09:39:18;5.47;;;1.40;;
25758;SDS011;13604;52.496;13.456;2023-12-29T09:41:45;6.07;;;1.73;;
25758;SDS011;13604;52.496;13.456;2023-12-29T09:44:13;8.45;;;3.10;;
25758;SDS011;13604;52.496;13.456;2023-12-29T09:46:39;6.00;;;2.30;;
25758;SDS011;13604;52.496;13.456;2023-12-29T09:49:06;5.93;;;2.28;;
25758;SDS011;13604;52.496;13.456;2023-12-29T09:51:33;9.25;;;2.03;;
25758;SDS011;13604;52.496;13.456;2023-12-29T09:53:59;5.63;;;1.67;;
25758;SDS011;13604;52.496;13.456;2023-12-29T09:56:24;4.65;;;2.00;;
25758;SDS011;13604;52.496;13.456;2023-12-29T09:58:49;4.00;;;1.55;;
25758;SDS011;13604;52.496;13.456;2023-12-29T10:01:17;5.40;;;1.50;;
25758;SDS011;13604;52.496;13.456;2023-12-29T10:03:44;4.18;;;1.20;;
25758;SDS011;13604;52.496;13.456;2023-12-29T10:06:09;2.40;;;1.85;;
25758;SDS011;13604;52.496;13.456;2023-12-29T10:08:42;2.30;;;1.63;;
25758;SDS011;13604;52.496;13.456;2023-12-29T10:11:11;5.30;;;1.75;;
25758;SDS011;13604;52.496;13.456;2023-12-29T10:13:36;4.78;;;1.50;;
25758;SDS011;13604;52.496;13.456;2023-12-29T10:19:00;3.78;;;1.20;;
25758;SDS011;13604;52.496;13.456;2023-12-29T10:21:37;4.00;;;1.42;;
25758;SDS011;13604;52.496;13.456;2023-12-29T10:24:10;4.78;;;1.33;;
25758;SDS011;13604;52.496;13.456;2023-12-29T10:26:41;4.65;;;1.60;;
25758;SDS011;13604;52.496;13.456;2023-12-29T10:29:08;5.57;;;1.40;;
25758;SDS011;13604;52.496;13.456;2023-12-29T10:31:34;3.67;;;1.65;;
25758;SDS011;13604;52.496;13.456;2023-12-29T10:36:49;2.97;;;1.90;;
25758;SDS011;13604;52.496;13.456;2023-12-29T10:39:15;5.68;;;1.67;;
25758;SDS011;13604;52.496;13.456;2023-12-29T10:41:40;4.05;;;1.65;;
25758;SDS011;13604;52.496;13.456;2023-12-29T10:44:06;3.10;;;1.52;;
25758;SDS011;13604;52.496;13.456;2023-12-29T10:46:33;4.65;;;2.03;;
25758;SDS011;13604;52.496;13.456;2023-12-29T10:49:08;10.35;;;2.03;;
25758;SDS011;13604;52.496;13.456;2023-12-29T10:51:34;4.68;;;1.50;;
25758;SDS011;13604;52.496;13.456;2023-12-29T10:54:00;6.32;;;1.80;;
25758;SDS011;13604;52.496;13.456;2023-12-29T10:56:25;5.07;;;1.67;;
25758;SDS011;13604;52.496;13.456;2023-12-29T10:59:02;6.15;;;1.88;;
25758;SDS011;13604;52.496;13.456;2023-12-29T11:01:29;8.20;;;1.70;;
25758;SDS011;13604;52.496;13.456;2023-12-29T11:03:58;9.27;;;1.55;;
25758;SDS011;13604;52.496;13.456;2023-12-29T11:06:25;5.78;;;1.77;;
25758;SDS011;13604;52.496;13.456;2023-12-29T11:08:52;4.78;;;1.60;;
25758;SDS011;13604;52.496;13.456;2023-12-29T11:11:18;4.75;;;1.42;;
25758;SDS011;13604;52.496;13.456;2023-12-29T11:13:43;7.13;;;1.85;;
25758;SDS011;13604;52.496;13.456;2023-12-29T11:16:11;6.00;;;1.50;;
25758;SDS011;13604;52.496;13.456;2023-12-29T11:18:37;5.85;;;1.67;;
25758;SDS011;13604;52.496;13.456;2023-12-29T11:21:03;6.10;;;1.65;;
25758;SDS011;13604;52.496;13.456;2023-12-29T11:23:29;3.80;;;1.52;;
25758;SDS011;13604;52.496;13.456;2023-12-29T11:25:54;5.68;;;1.55;;
25758;SDS011;13604;52.496;13.456;2023-12-29T11:28:21;5.68;;;1.70;;
25758;SDS011;13604;52.496;13.456;2023-12-29T11:30:47;6.40;;;1.60;;
25758;SDS011;13604;52.496;13.456;2023-12-29T11:33:14;2.28;;;1.45;;
25758;SDS011;13604;52.496;13.456;2023-12-29T11:35:43;5.65;;;1.35;;
25758;SDS011;13604;52.496;13.456;2023-12-29T11:43:57;5.38;;;1.70;;
25758;SDS011;13604;52.496;13.456;2023-12-29T11:46:33;5.05;;;1.90;;
25758;SDS011;13604;52.496;13.456;2023-12-29T11:49:00;5.63;;;1.58;;
25758;SDS011;13604;52.496;13.456;2023-12-29T11:51:41;5.57;;;1.50;;
25758;SDS011;13604;52.496;13.456;2023-12-29T11:54:08;3.53;;;1.55;;
25758;SDS011;13604;52.496;13.456;2023-12-29T11:56:34;4.00;;;1.67;;
25758;SDS011;13604;52.496;13.456;2023-12-29T11:59:17;5.43;;;1.88;;
25758;SDS011;13604;52.496;13.456;2023-12-29T12:01:47;3.47;;;1.33;;
25758;SDS011;13604;52.496;13.456;2023-12-29T12:07:04;3.80;;;1.60;;
25758;SDS011;13604;52.496;13.456;2023-12-29T12:09:31;3.78;;;1.70;;
25758;SDS011;13604;52.496;13.456;2023-12-29T12:11:57;4.22;;;1.42;;
25758;SDS011;13604;52.496;13.456;2023-12-29T12:17:12;5.45;;;1.60;;
25758;SDS011;13604;52.496;13.456;2023-12-29T12:19:37;2.95;;;1.17;;
25758;SDS011;13604;52.496;13.456;2023-12-29T12:22:04;7.57;;;1.80;;
25758;SDS011;13604;52.496;13.456;2023-12-29T12:24:31;7.60;;;2.05;;
25758;SDS011;13604;52.496;13.456;2023-12-29T12:27:00;4.00;;;1.42;;
25758;SDS011;13604;52.496;13.456;2023-12-29T12:29:27;6.50;;;1.90;;
25758;SDS011;13604;52.496;13.456;2023-12-29T12:31:53;3.03;;;1.30;;
25758;SDS011;13604;52.496;13.456;2023-12-29T12:34:22;7.80;;;1.67;;
25758;SDS011;13604;52.496;13.456;2023-12-29T12:36:48;2.97;;;1.10;;
25758;SDS011;13604;52.496;13.456;2023-12-29T12:39:16;5.10;;;1.42;;
25758;SDS011;13604;52.496;13.456;2023-12-29T12:41:42;7.47;;;2.20;;
25758;SDS011;13604;52.496;13.456;2023-12-29T12:44:11;7.75;;;1.55;;
25758;SDS011;13604;52.496;13.456;2023-12-29T12:46:49;3.17;;;1.45;;
25758;SDS011;13604;52.496;13.456;2023-12-29T12:49:19;2.78;;;1.67;;
25758;SDS011;13604;52.496;13.456;2023-12-29T12:51:45;8.32;;;1.70;;
25758;SDS011;13604;52.496;13.456;2023-12-29T12:54:11;6.55;;;1.40;;
25758;SDS011;13604;52.496;13.456;2023-12-29T12:56:40;3.63;;;1.75;;
25758;SDS011;13604;52.496;13.456;2023-12-29T12:59:07;6.57;;;1.58;;
25758;SDS011;13604;52.496;13.456;2023-12-29T13:01:35;8.02;;;2.10;;
25758;SDS011;13604;52.496;13.456;2023-12-29T13:04:01;5.40;;;1.50;;
25758;SDS011;13604;52.496;13.456;2023-12-29T13:06:28;5.82;;;2.00;;
25758;SDS011;13604;52.496;13.456;2023-12-29T13:08:57;5.55;;;1.30;;
25758;SDS011;13604;52.496;13.456;2023-12-29T13:11:23;6.40;;;2.20;;
25758;SDS011;13604;52.496;13.456;2023-12-29T13:13:50;4.18;;;1.95;;
25758;SDS011;13604;52.496;13.456;2023-12-29T13:16:31;6.93;;;1.90;;
25758;SDS011;13604;52.496;13.456;2023-12-29T13:19:14;6.32;;;1.85;;
25758;SDS011;13604;52.496;13.456;2023-12-29T13:21:50;6.45;;;2.50;;
25758;SDS011;13604;52.496;13.456;2023-12-29T13:24:16;5.22;;;2.10;;
25758;SDS011;13604;52.496;13.456;2023-12-29T13:26:43;6.13;;;1.92;;
25758;SDS011;13604;52.496;13.456;2023-12-29T13:29:10;6.78;;;2.13;;
25758;SDS011;13604;52.496;13.456;2023-12-29T13:31:36;7.20;;;1.90;;
25758;SDS011;13604;52.496;13.456;2023-12-29T13:34:04;5.05;;;1.50;;
25758;SDS011;13604;52.496;13.456;2023-12-29T13:36:42;1.52;;;1.27;;
25758;SDS011;13604;52.496;13.456;2023-12-29T13:39:21;4.38;;;1.33;;
25758;SDS011;13604;52.496;13.456;2023-12-29T13:42:11;3.58;;;1.67;;
25758;SDS011;13604;52.496;13.456;2023-12-29T13:44:39;7.10;;;1.42;;
25758;SDS011;13604;52.496;13.456;2023-12-29T13:47:06;3.45;;;1.58;;
25758;SDS011;13604;52.496;13.456;2023-12-29T13:49:32;3.78;;;1.30;;
25758;SDS011;13604;52.496;13.456;2023-12-29T13:52:01;3.45;;;1.38;;
25758;SDS011;13604;52.496;13.456;2023-12-29T13:54:27;3.50;;;1.48;;
25758;SDS011;13604;52.496;13.456;2023-12-29T13:56:53;2.38;;;1.30;;
25758;SDS011;13604;52.496;13.456;2023-12-29T13:59:28;4.03;;;1.40;;
25758;SDS011;13604;52.496;13.456;2023-12-29T14:01:54;3.63;;;1.50;;
25758;SDS011;13604;52.496;13.456;2023-12-29T14:04:19;1.60;;;1.00;;
25758;SDS011;13604;52.496;13.456;2023-12-29T14:06:52;3.42;;;1.40;;
25758;SDS011;13604;52.496;13.456;2023-12-29T14:09:24;3.20;;;1.20;;
25758;SDS011;13604;52.496;13.456;2023-12-29T14:11:49;3.67;;;1.45;;
25758;SDS011;13604;52.496;13.456;2023-12-29T14:14:20;2.05;;;1.33;;
25758;SDS011;13604;52.496;13.456;2023-12-29T14:16:47;6.07;;;1.35;;
25758;SDS011;13604;52.496;13.456;2023-12-29T14:19:12;7.43;;;1.40;;
25758;SDS011;13604;52.496;13.456;2023-12-29T14:21:38;1.95;;;1.27;;
25758;SDS011;13604;52.496;13.456;2023-12-29T14:24:10;4.20;;;1.50;;
25758;SDS011;13604;52.496;13.456;2023-12-29T14:29:17;2.92;;;1.40;;
25758;SDS011;13604;52.496;13.456;2023-12-29T14:31:43;3.78;;;1.52;;
25758;SDS011;13604;52.496;13.456;2023-12-29T14:34:09;2.67;;;1.42;;
25758;SDS011;13604;52.496;13.456;2023-12-29T14:36:36;2.88;;;1.27;;
25758;SDS011;13604;52.496;13.456;2023-12-29T14:39:03;4.18;;;1.20;;
25758;SDS011;13604;52.496;13.456;2023-12-29T14:41:29;2.00;;;1.08;;
25758;SDS011;13604;52.496;13.456;2023-12-29T14:43:55;2.10;;;1.25;;
25758;SDS011;13604;52.496;13.456;2023-12-29T14:46:20;2.33;;;1.15;;
25758;SDS011;13604;52.496;13.456;2023-12-29T14:48:46;3.70;;;1.30;;
25758;SDS011;13604;52.496;13.456;2023-12-29T14:51:12;5.32;;;1.58;;